sensor_id;sensor_type;location;lat;lon;timestamp;P1;durP1;ratioP1;P2;durP2;ratioP2
53267;SDS011;39156;51.176;6.738;2023-03-19T00:00:11;36.03;;;33.78;;
53267;SDS011;39156;51.176;6.738;2023-03-19T00:02:37;36.47;;;34.28;;
53267;SDS011;39156;51.176;6.738;2023-03-19T00:05:03;36.85;;;34.85;;
53267;SDS011;39156;51.176;6.738;2023-03-19T00:07:29;35.53;;;33.53;;
53267;SDS011;39156;51.176;6.738;2023-03-19T00:09:55;37.55;;;35.03;;
53267;SDS011;39156;51.176;6.738;2023-03-19T00:12:21;35.58;;;33.58;;
53267;SDS011;39156;51.176;6.738;2023-03-19T00:14:47;37.27;;;35.17;;
53267;SDS011;39156;51.176;6.738;2023-03-19T00:17:13;35.08;;;33.17;;
53267;SDS011;39156;51.176;6.738;2023-03-19T00:19:38;36.60;;;34.42;;
53267;SDS011;39156;51.176;6.738;2023-03-19T00:22:04;36.55;;;34.38;;
53267;SDS011;39156;51.176;6.738;2023-03-19T00:24:30;38.03;;;35.67;;
53267;SDS011;39156;51.176;6.738;2023-03-19T00:26:56;37.40;;;35.25;;
53267;SDS011;39156;51.176;6.738;2023-03-19T00:29:21;39.15;;;36.97;;
53267;SDS011;39156;51.176;6.738;2023-03-19T00:31:48;37.97;;;35.78;;
53267;SDS011;39156;51.176;6.738;2023-03-19T00:34:14;35.90;;;33.80;;
53267;SDS011;39156;51.176;6.738;2023-03-19T00:36:42;36.42;;;34.33;;
53267;SDS011;39156;51.176;6.738;2023-03-19T00:39:09;35.20;;;33.30;;
53267;SDS011;39156;51.176;6.738;2023-03-19T00:41:35;37.88;;;35.72;;
53267;SDS011;39156;51.176;6.738;2023-03-19T00:44:01;36.53;;;34.47;;
53267;SDS011;39156;51.176;6.738;2023-03-19T00:46:27;37.65;;;35.35;;
53267;SDS011;39156;51.176;6.738;2023-03-19T00:48:53;36.15;;;34.15;;
53267;SDS011;39156;51.176;6.738;2023-03-19T00:51:19;38.55;;;36.25;;
53267;SDS011;39156;51.176;6.738;2023-03-19T00:53:47;36.50;;;34.60;;
53267;SDS011;39156;51.176;6.738;2023-03-19T00:56:13;36.42;;;34.33;;
53267;SDS011;39156;51.176;6.738;2023-03-19T00:58:39;36.05;;;33.92;;
53267;SDS011;39156;51.176;6.738;2023-03-19T01:01:06;38.25;;;35.95;;
53267;SDS011;39156;51.176;6.738;2023-03-19T01:03:33;36.42;;;34.33;;
53267;SDS011;39156;51.176;6.738;2023-03-19T01:05:59;36.78;;;34.78;;
53267;SDS011;39156;51.176;6.738;2023-03-19T01:08:25;38.60;;;36.15;;
53267;SDS011;39156;51.176;6.738;2023-03-19T01:10:51;37.08;;;34.90;;
53267;SDS011;39156;51.176;6.738;2023-03-19T01:13:17;35.95;;;33.65;;
53267;SDS011;39156;51.176;6.738;2023-03-19T01:15:43;36.75;;;34.65;;
53267;SDS011;39156;51.176;6.738;2023-03-19T01:18:10;36.25;;;34.25;;
53267;SDS011;39156;51.176;6.738;2023-03-19T01:20:36;39.25;;;36.80;;
53267;SDS011;39156;51.176;6.738;2023-03-19T01:23:05;37.58;;;35.53;;
53267;SDS011;39156;51.176;6.738;2023-03-19T01:25:31;37.33;;;35.22;;
53267;SDS011;39156;51.176;6.738;2023-03-19T01:27:57;36.72;;;34.63;;
53267;SDS011;39156;51.176;6.738;2023-03-19T01:30:23;36.20;;;34.10;;
53267;SDS011;39156;51.176;6.738;2023-03-19T01:32:49;36.45;;;34.30;;
53267;SDS011;39156;51.176;6.738;2023-03-19T01:35:15;37.67;;;35.53;;
53267;SDS011;39156;51.176;6.738;2023-03-19T01:37:41;36.80;;;34.70;;
53267;SDS011;39156;51.176;6.738;2023-03-19T01:40:07;36.60;;;34.60;;
53267;SDS011;39156;51.176;6.738;2023-03-19T01:42:50;35.75;;;33.75;;
53267;SDS011;39156;51.176;6.738;2023-03-19T01:45:59;37.83;;;35.78;;
53267;SDS011;39156;51.176;6.738;2023-03-19T01:51:09;37.72;;;35.33;;
53267;SDS011;39156;51.176;6.738;2023-03-19T01:53:40;37.05;;;34.85;;
53267;SDS011;39156;51.176;6.738;2023-03-19T01:56:15;39.15;;;36.75;;
53267;SDS011;39156;51.176;6.738;2023-03-19T01:58:52;39.03;;;36.72;;
53267;SDS011;39156;51.176;6.738;2023-03-19T02:01:22;39.97;;;37.58;;
53267;SDS011;39156;51.176;6.738;2023-03-19T02:03:50;37.10;;;34.80;;
53267;SDS011;39156;51.176;6.738;2023-03-19T02:06:18;37.60;;;35.33;;
53267;SDS011;39156;51.176;6.738;2023-03-19T02:08:46;37.13;;;34.97;;
53267;SDS011;39156;51.176;6.738;2023-03-19T02:11:14;37.42;;;35.13;;
53267;SDS011;39156;51.176;6.738;2023-03-19T02:13:40;36.78;;;34.78;;
53267;SDS011;39156;51.176;6.738;2023-03-19T02:16:06;37.22;;;35.22;;
53267;SDS011;39156;51.176;6.738;2023-03-19T02:18:32;36.95;;;34.55;;
53267;SDS011;39156;51.176;6.738;2023-03-19T02:21:12;37.20;;;35.00;;
53267;SDS011;39156;51.176;6.738;2023-03-19T02:23:44;36.13;;;33.83;;
53267;SDS011;39156;51.176;6.738;2023-03-19T02:26:37;36.42;;;34.28;;
53267;SDS011;39156;51.176;6.738;2023-03-19T02:29:03;38.65;;;36.47;;
53267;SDS011;39156;51.176;6.738;2023-03-19T02:31:30;37.43;;;34.80;;
53267;SDS011;39156;51.176;6.738;2023-03-19T02:33:59;36.58;;;34.58;;
53267;SDS011;39156;51.176;6.738;2023-03-19T02:36:50;36.92;;;34.70;;
53267;SDS011;39156;51.176;6.738;2023-03-19T02:39:27;37.50;;;35.20;;
53267;SDS011;39156;51.176;6.738;2023-03-19T02:42:12;37.65;;;35.45;;
53267;SDS011;39156;51.176;6.738;2023-03-19T02:44:40;38.67;;;36.42;;
53267;SDS011;39156;51.176;6.738;2023-03-19T02:47:06;38.35;;;36.05;;
53267;SDS011;39156;51.176;6.738;2023-03-19T02:49:32;36.60;;;34.60;;
53267;SDS011;39156;51.176;6.738;2023-03-19T02:51:57;36.20;;;33.97;;
53267;SDS011;39156;51.176;6.738;2023-03-19T02:54:23;38.55;;;36.35;;
53267;SDS011;39156;51.176;6.738;2023-03-19T02:56:49;36.72;;;34.72;;
53267;SDS011;39156;51.176;6.738;2023-03-19T02:59:16;37.55;;;35.47;;
53267;SDS011;39156;51.176;6.738;2023-03-19T03:01:42;37.50;;;35.17;;
53267;SDS011;39156;51.176;6.738;2023-03-19T03:04:08;37.13;;;34.72;;
53267;SDS011;39156;51.176;6.738;2023-03-19T03:06:33;37.58;;;35.33;;
53267;SDS011;39156;51.176;6.738;2023-03-19T03:09:00;37.00;;;34.80;;
53267;SDS011;39156;51.176;6.738;2023-03-19T03:11:25;38.15;;;36.05;;
53267;SDS011;39156;51.176;6.738;2023-03-19T03:13:51;37.42;;;35.33;;
53267;SDS011;39156;51.176;6.738;2023-03-19T03:16:17;36.83;;;34.72;;
53267;SDS011;39156;51.176;6.738;2023-03-19T03:18:43;37.83;;;35.63;;
53267;SDS011;39156;51.176;6.738;2023-03-19T03:21:08;36.97;;;34.78;;
53267;SDS011;39156;51.176;6.738;2023-03-19T03:23:34;35.70;;;33.47;;
53267;SDS011;39156;51.176;6.738;2023-03-19T03:26:00;35.67;;;33.58;;
53267;SDS011;39156;51.176;6.738;2023-03-19T03:28:26;35.40;;;33.35;;
53267;SDS011;39156;51.176;6.738;2023-03-19T03:30:58;35.88;;;33.88;;
53267;SDS011;39156;51.176;6.738;2023-03-19T03:33:25;37.72;;;35.58;;
53267;SDS011;39156;51.176;6.738;2023-03-19T03:35:51;36.40;;;34.40;;
53267;SDS011;39156;51.176;6.738;2023-03-19T03:38:16;38.10;;;35.55;;
53267;SDS011;39156;51.176;6.738;2023-03-19T03:40:42;37.33;;;35.13;;
53267;SDS011;39156;51.176;6.738;2023-03-19T03:43:08;36.83;;;34.63;;
53267;SDS011;39156;51.176;6.738;2023-03-19T03:45:34;37.85;;;35.65;;
53267;SDS011;39156;51.176;6.738;2023-03-19T03:48:00;36.73;;;34.63;;
53267;SDS011;39156;51.176;6.738;2023-03-19T03:50:27;36.63;;;34.45;;
53267;SDS011;39156;51.176;6.738;2023-03-19T03:52:52;36.60;;;34.60;;
53267;SDS011;39156;51.176;6.738;2023-03-19T03:55:18;36.80;;;34.80;;
53267;SDS011;39156;51.176;6.738;2023-03-19T03:57:44;36.30;;;34.20;;
53267;SDS011;39156;51.176;6.738;2023-03-19T04:00:10;36.45;;;34.35;;
53267;SDS011;39156;51.176;6.738;2023-03-19T04:02:36;36.85;;;34.85;;
53267;SDS011;39156;51.176;6.738;2023-03-19T04:05:02;36.22;;;34.03;;
53267;SDS011;39156;51.176;6.738;2023-03-19T04:07:28;35.33;;;33.40;;
53267;SDS011;39156;51.176;6.738;2023-03-19T04:09:55;35.80;;;33.72;;
53267;SDS011;39156;51.176;6.738;2023-03-19T04:12:22;37.55;;;35.22;;
53267;SDS011;39156;51.176;6.738;2023-03-19T04:14:48;37.67;;;35.60;;
53267;SDS011;39156;51.176;6.738;2023-03-19T04:17:14;37.13;;;35.00;;
53267;SDS011;39156;51.176;6.738;2023-03-19T04:19:40;36.65;;;34.65;;
53267;SDS011;39156;51.176;6.738;2023-03-19T04:24:32;37.17;;;35.13;;
53267;SDS011;39156;51.176;6.738;2023-03-19T04:26:58;36.35;;;34.20;;
53267;SDS011;39156;51.176;6.738;2023-03-19T04:29:24;36.25;;;34.15;;
53267;SDS011;39156;51.176;6.738;2023-03-19T04:31:50;37.63;;;35.42;;
53267;SDS011;39156;51.176;6.738;2023-03-19T04:34:16;36.70;;;34.70;;
53267;SDS011;39156;51.176;6.738;2023-03-19T04:36:42;35.70;;;33.80;;
53267;SDS011;39156;51.176;6.738;2023-03-19T04:39:08;36.03;;;34.08;;
53267;SDS011;39156;51.176;6.738;2023-03-19T04:41:34;36.80;;;34.75;;
53267;SDS011;39156;51.176;6.738;2023-03-19T04:44:00;36.42;;;34.45;;
53267;SDS011;39156;51.176;6.738;2023-03-19T04:46:26;36.72;;;34.63;;
53267;SDS011;39156;51.176;6.738;2023-03-19T04:48:52;35.80;;;33.90;;
53267;SDS011;39156;51.176;6.738;2023-03-19T04:51:18;37.33;;;35.10;;
53267;SDS011;39156;51.176;6.738;2023-03-19T04:53:45;36.97;;;34.97;;
53267;SDS011;39156;51.176;6.738;2023-03-19T04:56:11;37.78;;;35.78;;
53267;SDS011;39156;51.176;6.738;2023-03-19T04:58:40;37.60;;;35.50;;
53267;SDS011;39156;51.176;6.738;2023-03-19T05:01:06;36.92;;;34.80;;
53267;SDS011;39156;51.176;6.738;2023-03-19T05:03:33;37.50;;;34.93;;
53267;SDS011;39156;51.176;6.738;2023-03-19T05:05:58;36.63;;;34.70;;
53267;SDS011;39156;51.176;6.738;2023-03-19T05:08:24;36.03;;;34.13;;
53267;SDS011;39156;51.176;6.738;2023-03-19T05:10:50;36.58;;;34.50;;
53267;SDS011;39156;51.176;6.738;2023-03-19T05:13:16;35.97;;;33.92;;
53267;SDS011;39156;51.176;6.738;2023-03-19T05:15:42;35.80;;;33.80;;
53267;SDS011;39156;51.176;6.738;2023-03-19T05:18:09;36.25;;;34.20;;
53267;SDS011;39156;51.176;6.738;2023-03-19T05:20:36;36.28;;;34.25;;
53267;SDS011;39156;51.176;6.738;2023-03-19T05:23:03;36.85;;;34.85;;
53267;SDS011;39156;51.176;6.738;2023-03-19T05:25:30;35.05;;;33.15;;
53267;SDS011;39156;51.176;6.738;2023-03-19T05:27:59;36.55;;;34.55;;
53267;SDS011;39156;51.176;6.738;2023-03-19T05:30:25;37.85;;;35.58;;
53267;SDS011;39156;51.176;6.738;2023-03-19T05:32:51;36.97;;;34.87;;
53267;SDS011;39156;51.176;6.738;2023-03-19T05:37:44;35.78;;;33.78;;
53267;SDS011;39156;51.176;6.738;2023-03-19T05:40:10;37.75;;;35.60;;
53267;SDS011;39156;51.176;6.738;2023-03-19T05:42:36;35.95;;;33.95;;
53267;SDS011;39156;51.176;6.738;2023-03-19T05:45:02;35.65;;;33.70;;
53267;SDS011;39156;51.176;6.738;2023-03-19T05:49:55;34.67;;;32.83;;
53267;SDS011;39156;51.176;6.738;2023-03-19T05:52:21;35.38;;;33.28;;
53267;SDS011;39156;51.176;6.738;2023-03-19T05:54:47;37.50;;;35.17;;
53267;SDS011;39156;51.176;6.738;2023-03-19T05:57:13;36.25;;;34.35;;
53267;SDS011;39156;51.176;6.738;2023-03-19T05:59:40;39.08;;;36.85;;
53267;SDS011;39156;51.176;6.738;2023-03-19T06:02:06;36.80;;;34.70;;
53267;SDS011;39156;51.176;6.738;2023-03-19T06:04:32;36.28;;;34.08;;
53267;SDS011;39156;51.176;6.738;2023-03-19T06:06:58;37.30;;;34.90;;
53267;SDS011;39156;51.176;6.738;2023-03-19T06:09:24;36.40;;;34.38;;
53267;SDS011;39156;51.176;6.738;2023-03-19T06:11:49;36.33;;;34.33;;
53267;SDS011;39156;51.176;6.738;2023-03-19T06:14:15;36.10;;;34.00;;
53267;SDS011;39156;51.176;6.738;2023-03-19T06:16:41;38.45;;;36.22;;
53267;SDS011;39156;51.176;6.738;2023-03-19T06:19:06;34.90;;;32.90;;
53267;SDS011;39156;51.176;6.738;2023-03-19T06:21:32;34.92;;;32.88;;
53267;SDS011;39156;51.176;6.738;2023-03-19T06:23:58;34.50;;;32.50;;
53267;SDS011;39156;51.176;6.738;2023-03-19T06:26:24;35.22;;;33.13;;
53267;SDS011;39156;51.176;6.738;2023-03-19T06:28:50;33.77;;;31.87;;
53267;SDS011;39156;51.176;6.738;2023-03-19T06:31:16;36.05;;;34.13;;
53267;SDS011;39156;51.176;6.738;2023-03-19T06:33:42;35.50;;;33.50;;
53267;SDS011;39156;51.176;6.738;2023-03-19T06:36:07;34.92;;;33.10;;
53267;SDS011;39156;51.176;6.738;2023-03-19T06:38:33;35.38;;;33.38;;
53267;SDS011;39156;51.176;6.738;2023-03-19T06:41:00;34.63;;;32.83;;
53267;SDS011;39156;51.176;6.738;2023-03-19T06:43:25;35.78;;;33.30;;
53267;SDS011;39156;51.176;6.738;2023-03-19T06:45:51;34.53;;;32.72;;
53267;SDS011;39156;51.176;6.738;2023-03-19T06:48:17;35.08;;;33.17;;
53267;SDS011;39156;51.176;6.738;2023-03-19T06:50:44;34.55;;;32.67;;
53267;SDS011;39156;51.176;6.738;2023-03-19T06:53:11;34.35;;;32.45;;
53267;SDS011;39156;51.176;6.738;2023-03-19T06:55:37;36.47;;;34.45;;
53267;SDS011;39156;51.176;6.738;2023-03-19T06:58:04;35.38;;;33.53;;
53267;SDS011;39156;51.176;6.738;2023-03-19T07:00:30;36.92;;;34.92;;
53267;SDS011;39156;51.176;6.738;2023-03-19T07:02:57;34.67;;;32.70;;
53267;SDS011;39156;51.176;6.738;2023-03-19T07:05:23;34.47;;;32.53;;
53267;SDS011;39156;51.176;6.738;2023-03-19T07:07:49;34.22;;;32.42;;
53267;SDS011;39156;51.176;6.738;2023-03-19T07:10:19;34.83;;;32.92;;
53267;SDS011;39156;51.176;6.738;2023-03-19T07:12:46;34.80;;;32.90;;
53267;SDS011;39156;51.176;6.738;2023-03-19T07:15:13;36.13;;;34.00;;
53267;SDS011;39156;51.176;6.738;2023-03-19T07:17:39;34.53;;;32.58;;
53267;SDS011;39156;51.176;6.738;2023-03-19T07:20:10;34.15;;;32.30;;
53267;SDS011;39156;51.176;6.738;2023-03-19T07:22:39;35.17;;;33.30;;
53267;SDS011;39156;51.176;6.738;2023-03-19T07:25:06;33.75;;;31.95;;
53267;SDS011;39156;51.176;6.738;2023-03-19T07:27:37;35.03;;;33.13;;
53267;SDS011;39156;51.176;6.738;2023-03-19T07:30:03;33.38;;;31.67;;
53267;SDS011;39156;51.176;6.738;2023-03-19T07:32:29;33.22;;;31.40;;
53267;SDS011;39156;51.176;6.738;2023-03-19T07:34:56;32.42;;;30.65;;
53267;SDS011;39156;51.176;6.738;2023-03-19T07:37:21;33.67;;;31.85;;
53267;SDS011;39156;51.176;6.738;2023-03-19T07:39:47;35.38;;;33.55;;
53267;SDS011;39156;51.176;6.738;2023-03-19T07:42:13;35.10;;;33.25;;
53267;SDS011;39156;51.176;6.738;2023-03-19T07:44:40;34.17;;;32.35;;
53267;SDS011;39156;51.176;6.738;2023-03-19T07:47:05;36.50;;;34.45;;
53267;SDS011;39156;51.176;6.738;2023-03-19T07:49:31;34.92;;;32.67;;
53267;SDS011;39156;51.176;6.738;2023-03-19T07:51:57;33.85;;;31.95;;
53267;SDS011;39156;51.176;6.738;2023-03-19T07:54:22;38.03;;;36.03;;
53267;SDS011;39156;51.176;6.738;2023-03-19T07:56:48;33.45;;;31.65;;
53267;SDS011;39156;51.176;6.738;2023-03-19T07:59:14;34.30;;;32.50;;
53267;SDS011;39156;51.176;6.738;2023-03-19T08:01:40;36.03;;;34.13;;
53267;SDS011;39156;51.176;6.738;2023-03-19T08:04:05;35.38;;;33.58;;
53267;SDS011;39156;51.176;6.738;2023-03-19T08:06:31;33.55;;;31.77;;
53267;SDS011;39156;51.176;6.738;2023-03-19T08:08:58;33.13;;;31.33;;
53267;SDS011;39156;51.176;6.738;2023-03-19T08:11:23;33.85;;;32.05;;
53267;SDS011;39156;51.176;6.738;2023-03-19T08:13:50;34.40;;;32.40;;
53267;SDS011;39156;51.176;6.738;2023-03-19T08:16:15;34.40;;;32.53;;
53267;SDS011;39156;51.176;6.738;2023-03-19T08:18:41;34.50;;;32.60;;
53267;SDS011;39156;51.176;6.738;2023-03-19T08:21:07;33.72;;;31.83;;
53267;SDS011;39156;51.176;6.738;2023-03-19T08:23:32;34.95;;;32.85;;
53267;SDS011;39156;51.176;6.738;2023-03-19T08:25:59;32.65;;;30.88;;
53267;SDS011;39156;51.176;6.738;2023-03-19T08:28:25;33.70;;;32.00;;
53267;SDS011;39156;51.176;6.738;2023-03-19T08:30:51;35.03;;;32.92;;
53267;SDS011;39156;51.176;6.738;2023-03-19T08:33:16;34.00;;;32.17;;
53267;SDS011;39156;51.176;6.738;2023-03-19T08:35:42;33.37;;;31.57;;
53267;SDS011;39156;51.176;6.738;2023-03-19T08:38:08;33.77;;;32.03;;
53267;SDS011;39156;51.176;6.738;2023-03-19T08:40:35;34.00;;;32.20;;
53267;SDS011;39156;51.176;6.738;2023-03-19T08:43:00;31.90;;;30.20;;
53267;SDS011;39156;51.176;6.738;2023-03-19T08:45:27;32.85;;;30.83;;
53267;SDS011;39156;51.176;6.738;2023-03-19T08:47:52;32.93;;;31.13;;
53267;SDS011;39156;51.176;6.738;2023-03-19T08:50:18;30.67;;;29.07;;
53267;SDS011;39156;51.176;6.738;2023-03-19T08:52:44;35.27;;;33.47;;
53267;SDS011;39156;51.176;6.738;2023-03-19T08:55:10;33.53;;;31.83;;
53267;SDS011;39156;51.176;6.738;2023-03-19T08:57:36;33.90;;;32.10;;
53267;SDS011;39156;51.176;6.738;2023-03-19T09:00:04;33.07;;;31.23;;
53267;SDS011;39156;51.176;6.738;2023-03-19T09:02:31;33.97;;;32.15;;
53267;SDS011;39156;51.176;6.738;2023-03-19T09:04:57;32.63;;;30.83;;
53267;SDS011;39156;51.176;6.738;2023-03-19T09:07:23;33.73;;;32.03;;
53267;SDS011;39156;51.176;6.738;2023-03-19T09:09:49;32.20;;;30.30;;
53267;SDS011;39156;51.176;6.738;2023-03-19T09:12:15;31.20;;;29.53;;
53267;SDS011;39156;51.176;6.738;2023-03-19T09:14:42;31.85;;;30.10;;
53267;SDS011;39156;51.176;6.738;2023-03-19T09:17:08;31.40;;;29.70;;
53267;SDS011;39156;51.176;6.738;2023-03-19T09:22:01;32.08;;;30.08;;
53267;SDS011;39156;51.176;6.738;2023-03-19T09:24:27;31.92;;;30.23;;
53267;SDS011;39156;51.176;6.738;2023-03-19T09:26:53;30.97;;;29.37;;
53267;SDS011;39156;51.176;6.738;2023-03-19T09:29:19;33.03;;;31.33;;
53267;SDS011;39156;51.176;6.738;2023-03-19T09:31:45;30.67;;;28.97;;
53267;SDS011;39156;51.176;6.738;2023-03-19T09:34:11;32.40;;;30.63;;
53267;SDS011;39156;51.176;6.738;2023-03-19T09:36:37;31.17;;;29.52;;
53267;SDS011;39156;51.176;6.738;2023-03-19T09:39:04;30.85;;;29.25;;
53267;SDS011;39156;51.176;6.738;2023-03-19T09:42:17;31.05;;;29.42;;
53267;SDS011;39156;51.176;6.738;2023-03-19T09:44:44;32.00;;;30.20;;
53267;SDS011;39156;51.176;6.738;2023-03-19T09:47:27;30.75;;;29.15;;
53267;SDS011;39156;51.176;6.738;2023-03-19T09:50:02;32.17;;;30.38;;
53267;SDS011;39156;51.176;6.738;2023-03-19T09:55:24;30.17;;;28.58;;
53267;SDS011;39156;51.176;6.738;2023-03-19T09:58:11;30.80;;;29.20;;
53267;SDS011;39156;51.176;6.738;2023-03-19T10:00:52;31.25;;;29.55;;
53267;SDS011;39156;51.176;6.738;2023-03-19T10:03:38;32.90;;;31.20;;
53267;SDS011;39156;51.176;6.738;2023-03-19T10:06:25;30.38;;;28.77;;
53267;SDS011;39156;51.176;6.738;2023-03-19T10:09:11;29.50;;;27.92;;
53267;SDS011;39156;51.176;6.738;2023-03-19T10:17:27;30.38;;;28.80;;
53267;SDS011;39156;51.176;6.738;2023-03-19T10:20:04;31.88;;;30.17;;
53267;SDS011;39156;51.176;6.738;2023-03-19T10:22:43;31.95;;;30.15;;
53267;SDS011;39156;51.176;6.738;2023-03-19T10:25:19;31.60;;;29.83;;
53267;SDS011;39156;51.176;6.738;2023-03-19T10:27:52;32.25;;;30.58;;
53267;SDS011;39156;51.176;6.738;2023-03-19T10:30:25;30.42;;;28.92;;
53267;SDS011;39156;51.176;6.738;2023-03-19T10:33:03;31.38;;;29.77;;
53267;SDS011;39156;51.176;6.738;2023-03-19T10:35:43;31.83;;;30.20;;
53267;SDS011;39156;51.176;6.738;2023-03-19T10:38:20;32.95;;;31.15;;
53267;SDS011;39156;51.176;6.738;2023-03-19T10:40:55;31.95;;;30.33;;
53267;SDS011;39156;51.176;6.738;2023-03-19T10:43:55;33.05;;;31.35;;
53267;SDS011;39156;51.176;6.738;2023-03-19T10:46:26;31.98;;;30.17;;
53267;SDS011;39156;51.176;6.738;2023-03-19T10:48:52;30.85;;;29.25;;
53267;SDS011;39156;51.176;6.738;2023-03-19T10:51:20;32.23;;;30.53;;
53267;SDS011;39156;51.176;6.738;2023-03-19T10:53:53;31.58;;;29.98;;
53267;SDS011;39156;51.176;6.738;2023-03-19T10:56:22;33.15;;;31.15;;
53267;SDS011;39156;51.176;6.738;2023-03-19T10:59:09;32.35;;;30.30;;
53267;SDS011;39156;51.176;6.738;2023-03-19T11:01:49;31.75;;;30.05;;
53267;SDS011;39156;51.176;6.738;2023-03-19T11:04:26;33.30;;;31.52;;
53267;SDS011;39156;51.176;6.738;2023-03-19T11:06:54;33.58;;;31.77;;
53267;SDS011;39156;51.176;6.738;2023-03-19T11:09:36;32.67;;;30.92;;
53267;SDS011;39156;51.176;6.738;2023-03-19T11:12:07;32.35;;;30.65;;
53267;SDS011;39156;51.176;6.738;2023-03-19T11:14:43;33.13;;;31.42;;
53267;SDS011;39156;51.176;6.738;2023-03-19T11:20:18;34.88;;;32.88;;
53267;SDS011;39156;51.176;6.738;2023-03-19T11:22:52;32.25;;;30.45;;
53267;SDS011;39156;51.176;6.738;2023-03-19T11:25:27;33.72;;;31.73;;
53267;SDS011;39156;51.176;6.738;2023-03-19T11:28:06;34.50;;;32.70;;
53267;SDS011;39156;51.176;6.738;2023-03-19T11:50:48;32.92;;;30.83;;
53267;SDS011;39156;51.176;6.738;2023-03-19T11:56:50;34.05;;;32.25;;
53267;SDS011;39156;51.176;6.738;2023-03-19T11:59:35;34.28;;;32.38;;
53267;SDS011;39156;51.176;6.738;2023-03-19T12:02:19;34.20;;;32.35;;
53267;SDS011;39156;51.176;6.738;2023-03-19T12:08:28;32.53;;;30.65;;
53267;SDS011;39156;51.176;6.738;2023-03-19T12:14:12;33.85;;;31.98;;
53267;SDS011;39156;51.176;6.738;2023-03-19T12:22:38;34.45;;;32.55;;
53267;SDS011;39156;51.176;6.738;2023-03-19T12:25:41;33.80;;;31.90;;
53267;SDS011;39156;51.176;6.738;2023-03-19T12:31:19;33.33;;;31.20;;
53267;SDS011;39156;51.176;6.738;2023-03-19T12:34:27;34.65;;;32.65;;
53267;SDS011;39156;51.176;6.738;2023-03-19T12:37:20;34.35;;;32.45;;
53267;SDS011;39156;51.176;6.738;2023-03-19T12:40:04;33.15;;;31.35;;
53267;SDS011;39156;51.176;6.738;2023-03-19T12:42:48;34.08;;;32.28;;
53267;SDS011;39156;51.176;6.738;2023-03-19T12:48:05;34.35;;;32.45;;
53267;SDS011;39156;51.176;6.738;2023-03-19T12:50:44;35.75;;;33.85;;
53267;SDS011;39156;51.176;6.738;2023-03-19T12:53:39;33.15;;;31.35;;
53267;SDS011;39156;51.176;6.738;2023-03-19T12:56:13;34.15;;;32.30;;
53267;SDS011;39156;51.176;6.738;2023-03-19T13:02:03;34.28;;;32.25;;
53267;SDS011;39156;51.176;6.738;2023-03-19T13:04:59;36.00;;;33.95;;
53267;SDS011;39156;51.176;6.738;2023-03-19T13:07:50;34.53;;;32.53;;
53267;SDS011;39156;51.176;6.738;2023-03-19T13:10:34;32.47;;;30.67;;
53267;SDS011;39156;51.176;6.738;2023-03-19T13:13:16;34.38;;;32.33;;
53267;SDS011;39156;51.176;6.738;2023-03-19T13:22:15;34.17;;;32.28;;
53267;SDS011;39156;51.176;6.738;2023-03-19T13:24:46;35.83;;;33.65;;
53267;SDS011;39156;51.176;6.738;2023-03-19T13:27:21;34.33;;;32.40;;
53267;SDS011;39156;51.176;6.738;2023-03-19T13:38:16;33.95;;;32.05;;
53267;SDS011;39156;51.176;6.738;2023-03-19T13:40:52;35.40;;;33.25;;
53267;SDS011;39156;51.176;6.738;2023-03-19T13:51:08;34.60;;;32.65;;
53267;SDS011;39156;51.176;6.738;2023-03-19T13:56:54;35.00;;;33.13;;
53267;SDS011;39156;51.176;6.738;2023-03-19T13:59:40;35.22;;;33.03;;
53267;SDS011;39156;51.176;6.738;2023-03-19T14:04:51;36.92;;;34.72;;
53267;SDS011;39156;51.176;6.738;2023-03-19T14:07:41;34.78;;;32.78;;
53267;SDS011;39156;51.176;6.738;2023-03-19T14:13:03;36.30;;;34.20;;
53267;SDS011;39156;51.176;6.738;2023-03-19T14:15:47;36.50;;;34.40;;
53267;SDS011;39156;51.176;6.738;2023-03-19T14:18:16;34.15;;;32.22;;
53267;SDS011;39156;51.176;6.738;2023-03-19T14:20:49;35.65;;;33.42;;
53267;SDS011;39156;51.176;6.738;2023-03-19T14:23:23;35.60;;;33.55;;
53267;SDS011;39156;51.176;6.738;2023-03-19T14:26:12;36.25;;;34.22;;
53267;SDS011;39156;51.176;6.738;2023-03-19T14:28:57;36.13;;;34.13;;
53267;SDS011;39156;51.176;6.738;2023-03-19T14:31:39;37.20;;;35.03;;
53267;SDS011;39156;51.176;6.738;2023-03-19T14:34:26;36.78;;;34.78;;
53267;SDS011;39156;51.176;6.738;2023-03-19T14:37:19;35.53;;;33.45;;
53267;SDS011;39156;51.176;6.738;2023-03-19T14:39:58;34.75;;;32.83;;
53267;SDS011;39156;51.176;6.738;2023-03-19T14:42:39;32.97;;;31.17;;
53267;SDS011;39156;51.176;6.738;2023-03-19T14:45:34;36.17;;;34.20;;
53267;SDS011;39156;51.176;6.738;2023-03-19T14:48:13;34.60;;;32.60;;
53267;SDS011;39156;51.176;6.738;2023-03-19T14:51:15;36.25;;;34.25;;
53267;SDS011;39156;51.176;6.738;2023-03-19T14:57:18;33.80;;;31.90;;
53267;SDS011;39156;51.176;6.738;2023-03-19T14:59:49;35.15;;;33.15;;
53267;SDS011;39156;51.176;6.738;2023-03-19T15:02:18;34.10;;;32.20;;
53267;SDS011;39156;51.176;6.738;2023-03-19T15:05:06;33.63;;;31.70;;
53267;SDS011;39156;51.176;6.738;2023-03-19T15:07:35;37.40;;;35.35;;
53267;SDS011;39156;51.176;6.738;2023-03-19T15:10:05;34.17;;;32.28;;
53267;SDS011;39156;51.176;6.738;2023-03-19T15:12:47;36.17;;;34.17;;
53267;SDS011;39156;51.176;6.738;2023-03-19T15:18:31;34.25;;;32.28;;
53267;SDS011;39156;51.176;6.738;2023-03-19T15:20:57;35.08;;;33.28;;
53267;SDS011;39156;51.176;6.738;2023-03-19T15:23:24;36.00;;;33.73;;
53267;SDS011;39156;51.176;6.738;2023-03-19T15:25:55;33.60;;;31.80;;
53267;SDS011;39156;51.176;6.738;2023-03-19T15:28:31;34.15;;;32.25;;
53267;SDS011;39156;51.176;6.738;2023-03-19T15:31:15;34.83;;;32.92;;
53267;SDS011;39156;51.176;6.738;2023-03-19T15:33:42;34.25;;;32.42;;
53267;SDS011;39156;51.176;6.738;2023-03-19T15:36:11;34.25;;;32.35;;
53267;SDS011;39156;51.176;6.738;2023-03-19T15:39:04;34.70;;;32.60;;
53267;SDS011;39156;51.176;6.738;2023-03-19T15:41:36;34.58;;;32.42;;
53267;SDS011;39156;51.176;6.738;2023-03-19T15:44:08;34.58;;;32.20;;
53267;SDS011;39156;51.176;6.738;2023-03-19T15:46:40;35.35;;;33.45;;
53267;SDS011;39156;51.176;6.738;2023-03-19T15:49:18;35.65;;;33.65;;
53267;SDS011;39156;51.176;6.738;2023-03-19T15:51:51;33.40;;;31.60;;
53267;SDS011;39156;51.176;6.738;2023-03-19T15:54:23;32.88;;;30.98;;
53267;SDS011;39156;51.176;6.738;2023-03-19T15:59:16;34.67;;;32.78;;
53267;SDS011;39156;51.176;6.738;2023-03-19T16:01:45;35.90;;;33.88;;
53267;SDS011;39156;51.176;6.738;2023-03-19T16:04:13;34.50;;;32.60;;
53267;SDS011;39156;51.176;6.738;2023-03-19T16:06:47;34.72;;;32.83;;
53267;SDS011;39156;51.176;6.738;2023-03-19T16:09:24;35.13;;;33.22;;
53267;SDS011;39156;51.176;6.738;2023-03-19T16:11:57;34.95;;;32.90;;
53267;SDS011;39156;51.176;6.738;2023-03-19T16:17:11;36.33;;;34.22;;
53267;SDS011;39156;51.176;6.738;2023-03-19T16:22:22;36.15;;;33.95;;
53267;SDS011;39156;51.176;6.738;2023-03-19T16:24:53;35.85;;;33.95;;
53267;SDS011;39156;51.176;6.738;2023-03-19T16:30:03;36.70;;;34.28;;
53267;SDS011;39156;51.176;6.738;2023-03-19T16:32:55;34.95;;;32.95;;
53267;SDS011;39156;51.176;6.738;2023-03-19T16:35:26;34.40;;;32.60;;
53267;SDS011;39156;51.176;6.738;2023-03-19T16:38:05;34.50;;;32.70;;